createdAt,value
2018-07-21T00:01:29.532Z,6.10
2018-07-21T00:03:57.081Z,6.10
2018-07-21T00:06:24.710Z,5.97
2018-07-21T00:08:52.288Z,6.53
2018-07-21T00:11:19.941Z,6.30
2018-07-21T00:13:51.300Z,6.20
2018-07-21T00:16:18.900Z,5.83
2018-07-21T00:18:46.532Z,5.63
2018-07-21T00:21:14.166Z,6.80
2018-07-21T00:23:42.056Z,6.30
2018-07-21T00:26:09.601Z,5.63
2018-07-21T00:28:37.183Z,6.50
2018-07-21T00:31:04.802Z,6.40
2018-07-21T00:33:32.510Z,6.50
2018-07-21T00:36:00.072Z,6.03
2018-07-21T00:38:27.648Z,5.80
2018-07-21T00:40:55.163Z,5.57
2018-07-21T00:43:22.760Z,6.30
2018-07-21T00:45:50.311Z,6.80
2018-07-21T00:48:18.024Z,5.90
2018-07-21T00:50:46.017Z,6.30
2018-07-21T00:53:15.680Z,6.40
2018-07-21T00:55:43.246Z,7.13
2018-07-21T00:58:10.869Z,6.53
2018-07-21T01:00:38.432Z,5.87
2018-07-21T01:03:06.148Z,6.27
2018-07-21T01:05:33.641Z,6.70
2018-07-21T01:08:01.310Z,5.77
2018-07-21T01:10:28.889Z,6.30
2018-07-21T01:12:56.461Z,6.73
2018-07-21T01:15:24.054Z,5.33
2018-07-21T01:17:51.626Z,6.43
2018-07-21T01:20:19.251Z,6.87
2018-07-21T01:22:47.089Z,6.40
2018-07-21T01:25:14.610Z,5.23
2018-07-21T01:27:42.222Z,5.47
2018-07-21T01:30:09.804Z,6.47
2018-07-21T01:32:37.509Z,5.83
2018-07-21T01:35:04.957Z,6.73
2018-07-21T01:37:32.601Z,5.57
2018-07-21T01:40:00.243Z,6.13
2018-07-21T01:42:27.848Z,6.87
2018-07-21T01:44:55.380Z,6.13
2018-07-21T01:47:22.973Z,6.67
2018-07-21T01:49:50.992Z,6.43
2018-07-21T01:52:18.568Z,7.20
2018-07-21T01:54:46.161Z,6.90
2018-07-21T01:57:13.828Z,6.70
2018-07-21T01:59:41.431Z,6.10
2018-07-21T02:02:09.220Z,6.23
2018-07-21T02:04:36.852Z,6.00
2018-07-21T02:07:04.616Z,7.53
2018-07-21T02:09:32.209Z,6.43
2018-07-21T02:11:59.832Z,6.87
2018-07-21T02:14:27.439Z,7.83
2018-07-21T02:16:55.059Z,6.23
2018-07-21T02:19:23.171Z,6.50
2018-07-21T02:21:50.718Z,6.50
2018-07-21T02:24:18.268Z,7.87
2018-07-21T02:26:45.743Z,7.07
2018-07-21T02:29:13.288Z,7.10
2018-07-21T02:31:40.804Z,6.33
2018-07-21T02:34:08.389Z,6.30
2018-07-21T02:36:35.936Z,6.93
2018-07-21T02:39:06.721Z,7.23
2018-07-21T02:41:34.329Z,6.77
2018-07-21T02:44:02.544Z,7.30
2018-07-21T02:46:30.201Z,6.60
2018-07-21T02:48:57.805Z,7.30
2018-07-21T02:51:25.416Z,7.40
2018-07-21T02:53:54.405Z,7.90
2018-07-21T02:56:22.070Z,7.07
2018-07-21T02:58:49.631Z,7.70
2018-07-21T03:01:17.273Z,7.53
2018-07-21T03:03:44.960Z,6.90
2018-07-21T03:06:12.607Z,7.87
2018-07-21T03:08:40.376Z,7.10
2018-07-21T03:11:08.049Z,8.13
2018-07-21T03:13:35.753Z,8.77
2018-07-21T03:16:03.316Z,7.27
2018-07-21T03:18:30.892Z,8.67
2018-07-21T03:20:58.798Z,7.23
2018-07-21T03:23:26.331Z,7.27
2018-07-21T03:25:53.985Z,8.03
2018-07-21T03:28:21.609Z,7.30
2018-07-21T03:30:49.273Z,7.50
2018-07-21T03:33:16.815Z,7.60
2018-07-21T03:35:44.437Z,7.60
2018-07-21T03:38:12.042Z,8.60
2018-07-21T03:40:39.662Z,8.43
2018-07-21T03:43:07.119Z,8.67
2018-07-21T03:45:34.774Z,6.90
2018-07-21T03:48:02.269Z,7.50
2018-07-21T03:50:29.808Z,7.83
2018-07-21T03:52:57.408Z,6.80
2018-07-21T03:55:24.955Z,7.93
2018-07-21T03:57:53.177Z,7.50
2018-07-21T04:00:21.162Z,7.27
2018-07-21T04:02:50.332Z,7.43
2018-07-21T04:05:18.012Z,7.90
2018-07-21T04:07:45.592Z,7.53
2018-07-21T04:10:13.162Z,7.97
2018-07-21T04:12:40.722Z,8.20
2018-07-21T04:15:08.412Z,7.60
2018-07-21T04:17:35.952Z,8.20
2018-07-21T04:20:03.982Z,8.47
2018-07-21T04:22:31.626Z,7.80
2018-07-21T04:24:59.252Z,7.53
2018-07-21T04:27:26.909Z,9.17
2018-07-21T04:29:54.512Z,8.03
2018-07-21T04:32:22.165Z,7.93
2018-07-21T04:34:49.820Z,7.40
2018-07-21T04:37:17.359Z,7.80
2018-07-21T04:39:45.056Z,8.17
2018-07-21T04:42:12.560Z,9.33
2018-07-21T04:44:40.168Z,8.00
2018-07-21T04:47:07.836Z,8.30
2018-07-21T04:49:35.427Z,7.77
2018-07-21T04:52:03.009Z,7.40
2018-07-21T04:54:30.751Z,8.10
2018-07-21T04:56:58.313Z,7.13
2018-07-21T04:59:25.960Z,7.90
2018-07-21T05:01:53.533Z,7.80
2018-07-21T05:04:21.286Z,8.90
2018-07-21T05:06:48.933Z,7.60
2018-07-21T05:09:16.615Z,8.20
2018-07-21T05:11:44.363Z,7.63
2018-07-21T05:14:11.937Z,7.93
2018-07-21T05:16:39.507Z,9.07
2018-07-21T05:19:07.473Z,7.93
2018-07-21T05:21:35.644Z,7.50
2018-07-21T05:24:03.628Z,7.60
2018-07-21T05:26:31.278Z,8.33
2018-07-21T05:28:58.830Z,7.67
2018-07-21T05:31:26.503Z,7.80
2018-07-21T05:33:54.091Z,7.33
2018-07-21T05:36:21.803Z,7.57
2018-07-21T05:38:49.636Z,8.40
2018-07-21T05:41:17.333Z,8.07
2018-07-21T05:43:44.923Z,7.23
2018-07-21T05:46:12.647Z,7.27
2018-07-21T05:48:40.301Z,8.10
2018-07-21T05:51:07.980Z,8.07
2018-07-21T05:53:35.592Z,7.60
2018-07-21T05:56:03.056Z,7.33
2018-07-21T05:58:30.767Z,7.77
2018-07-21T06:00:58.324Z,8.27
2018-07-21T06:03:25.984Z,7.83
2018-07-21T06:05:53.620Z,7.10
2018-07-21T06:08:21.191Z,7.40
2018-07-21T06:10:48.792Z,6.80
2018-07-21T06:13:16.464Z,7.27
2018-07-21T06:15:44.238Z,6.73
2018-07-21T06:18:12.339Z,6.20
2018-07-21T06:20:40.188Z,9.20
2018-07-21T06:23:07.841Z,7.30
2018-07-21T06:25:35.454Z,7.00
2018-07-21T06:28:03.063Z,7.30
2018-07-21T06:30:30.711Z,7.07
2018-07-21T06:32:58.529Z,7.50
2018-07-21T06:35:28.291Z,5.97
2018-07-21T06:37:55.981Z,6.70
2018-07-21T06:40:24.566Z,6.50
2018-07-21T06:42:52.360Z,5.97
2018-07-21T06:45:20.163Z,6.77
2018-07-21T06:47:48.794Z,6.13
2018-07-21T06:50:17.997Z,6.00
2018-07-21T06:52:45.738Z,6.07
2018-07-21T06:55:13.576Z,6.83
2018-07-21T06:57:43.155Z,7.20
2018-07-21T07:00:10.846Z,6.90
2018-07-21T07:02:39.293Z,6.40
2018-07-21T07:05:07.689Z,6.73
2018-07-21T07:07:35.171Z,6.40
2018-07-21T07:10:02.878Z,6.83
2018-07-21T07:12:30.645Z,6.20
2018-07-21T07:14:58.266Z,6.27
2018-07-21T07:17:25.873Z,6.53
2018-07-21T07:19:53.856Z,6.57
2018-07-21T07:22:21.669Z,7.03
2018-07-21T07:24:50.241Z,7.07
2018-07-21T07:27:18.223Z,6.90
2018-07-21T07:29:45.765Z,6.67
2018-07-21T07:32:13.416Z,6.20
2018-07-21T07:34:41.152Z,5.60
2018-07-21T07:37:08.846Z,6.07
2018-07-21T07:39:36.431Z,6.27
2018-07-21T07:42:04.099Z,6.30
2018-07-21T07:44:31.740Z,5.67
2018-07-21T07:46:59.482Z,6.30
2018-07-21T07:49:27.140Z,4.90
2018-07-21T07:51:54.732Z,5.00
2018-07-21T07:54:22.448Z,6.97
2018-07-21T07:56:50.287Z,6.17
2018-07-21T07:59:17.934Z,5.73
2018-07-21T08:01:45.659Z,6.60
2018-07-21T08:04:13.398Z,6.60
2018-07-21T08:06:41.050Z,6.93
2018-07-21T08:09:12.100Z,7.07
2018-07-21T08:11:40.581Z,7.17
2018-07-21T08:14:08.262Z,7.07
2018-07-21T08:16:35.980Z,7.23
2018-07-21T08:19:03.714Z,7.00
2018-07-21T08:21:31.439Z,7.40
2018-07-21T08:23:59.530Z,6.63
2018-07-21T08:26:27.258Z,6.50
2018-07-21T08:28:58.318Z,7.60
2018-07-21T08:31:26.148Z,7.90
2018-07-21T08:33:54.609Z,6.77
2018-07-21T08:36:22.461Z,6.70
2018-07-21T08:38:50.308Z,7.67
2018-07-21T08:41:18.044Z,7.60
2018-07-21T08:43:46.507Z,6.40
2018-07-21T08:46:14.319Z,7.30
2018-07-21T08:48:42.007Z,8.40
2018-07-21T08:51:09.820Z,7.57
2018-07-21T08:53:37.772Z,7.17
2018-07-21T08:56:05.571Z,6.90
2018-07-21T08:58:33.429Z,6.63
2018-07-21T09:01:01.189Z,7.20
2018-07-21T09:03:29.172Z,6.40
2018-07-21T09:05:56.901Z,7.23
2018-07-21T09:08:24.618Z,7.33
2018-07-21T09:10:52.523Z,7.73
2018-07-21T09:13:20.753Z,7.67
2018-07-21T09:15:48.451Z,7.40
2018-07-21T09:18:16.151Z,7.27
2018-07-21T09:20:43.831Z,9.23
2018-07-21T09:23:11.611Z,8.33
2018-07-21T09:25:39.574Z,9.20
2018-07-21T09:28:07.129Z,9.27
2018-07-21T09:30:34.911Z,7.83
2018-07-21T09:33:02.583Z,9.27
2018-07-21T09:35:30.800Z,7.90
2018-07-21T09:37:58.440Z,9.53
2018-07-21T09:40:26.250Z,8.03
2018-07-21T09:42:53.848Z,8.97
2018-07-21T09:45:21.428Z,7.90
2018-07-21T09:47:49.128Z,8.00
2018-07-21T09:50:16.968Z,7.80
2018-07-21T09:52:44.807Z,9.57
2018-07-21T09:55:12.517Z,8.10
2018-07-21T09:57:40.396Z,8.30
2018-07-21T10:00:09.828Z,8.03
2018-07-21T10:02:37.596Z,8.80
2018-07-21T10:05:05.363Z,8.50
2018-07-21T10:07:33.082Z,8.43
2018-07-21T10:10:00.868Z,8.00
2018-07-21T10:12:28.682Z,7.57
2018-07-21T10:14:56.582Z,9.00
2018-07-21T10:17:24.204Z,8.30
2018-07-21T10:19:52.079Z,8.80
2018-07-21T10:22:19.766Z,8.20
2018-07-21T10:24:52.923Z,7.70
2018-07-21T10:27:20.895Z,9.03
2018-07-21T10:29:48.630Z,10.27
2018-07-21T10:32:16.424Z,8.50
2018-07-21T10:34:44.281Z,9.97
2018-07-21T10:37:11.951Z,8.30
2018-07-21T10:39:39.707Z,8.60
2018-07-21T10:42:08.561Z,8.27
2018-07-21T10:44:36.725Z,7.57
2018-07-21T10:47:04.452Z,8.87
2018-07-21T10:49:32.096Z,9.37
2018-07-21T10:51:59.826Z,9.73
2018-07-21T10:54:27.596Z,10.43
2018-07-21T10:56:55.291Z,10.83
2018-07-21T10:59:23.338Z,9.93
2018-07-21T11:01:51.156Z,11.43
2018-07-21T11:04:18.918Z,10.73
2018-07-21T11:06:46.709Z,11.27
2018-07-21T11:09:14.359Z,11.53
2018-07-21T11:11:42.117Z,10.60
2018-07-21T11:14:09.765Z,11.13
2018-07-21T11:16:37.474Z,11.20
2018-07-21T11:19:05.255Z,11.53
2018-07-21T11:21:32.935Z,10.60
2018-07-21T11:24:00.613Z,11.83
2018-07-21T11:26:28.353Z,10.70
2018-07-21T11:28:56.030Z,10.83
2018-07-21T11:31:23.806Z,11.77
2018-07-21T11:33:52.224Z,12.67
2018-07-21T11:36:20.039Z,11.13
2018-07-21T11:38:47.791Z,12.00
2018-07-21T11:41:15.501Z,11.13
2018-07-21T11:43:43.380Z,13.20
2018-07-21T11:46:11.171Z,12.83
2018-07-21T11:48:39.032Z,12.60
2018-07-21T11:51:06.765Z,14.33
2018-07-21T11:53:34.715Z,15.70
2018-07-21T11:56:02.497Z,15.60
2018-07-21T11:58:30.117Z,15.50
2018-07-21T12:01:01.732Z,15.90
2018-07-21T12:03:29.557Z,15.80
2018-07-21T12:05:57.244Z,17.17
2018-07-21T12:08:24.916Z,16.83
2018-07-21T12:10:52.779Z,16.60
2018-07-21T12:13:20.613Z,16.50
2018-07-21T12:15:48.389Z,17.07
2018-07-21T12:18:16.076Z,15.20
2018-07-21T12:20:44.153Z,15.87
2018-07-21T12:23:11.904Z,15.17
2018-07-21T12:25:39.662Z,15.13
2018-07-21T12:28:07.288Z,13.80
2018-07-21T12:30:35.094Z,13.97
2018-07-21T12:33:02.866Z,13.10
2018-07-21T12:35:30.653Z,13.80
2018-07-21T12:37:58.314Z,13.80
2018-07-21T12:40:26.014Z,14.63
2018-07-21T12:42:53.727Z,14.60
2018-07-21T12:45:21.448Z,14.50
2018-07-21T12:47:49.211Z,16.43
2018-07-21T12:50:16.893Z,12.67
2018-07-21T12:52:44.535Z,13.60
2018-07-21T12:55:12.278Z,11.87
2018-07-21T12:57:39.872Z,11.37
2018-07-21T13:00:07.476Z,10.30
2018-07-21T13:02:35.313Z,11.10
2018-07-21T13:05:08.079Z,9.10
2018-07-21T13:07:35.688Z,11.60
2018-07-21T13:10:03.471Z,10.30
2018-07-21T13:12:31.082Z,10.67
2018-07-21T13:14:58.792Z,9.97
2018-07-21T13:17:26.604Z,10.47
2018-07-21T13:19:54.424Z,10.70
2018-07-21T13:22:22.057Z,9.83
2018-07-21T13:24:49.783Z,10.50
2018-07-21T13:27:17.413Z,12.57
2018-07-21T13:29:45.020Z,9.87
2018-07-21T13:32:12.637Z,10.47
2018-07-21T13:34:40.311Z,10.07
2018-07-21T13:37:07.937Z,9.10
2018-07-21T13:39:35.565Z,10.00
2018-07-21T13:42:03.296Z,10.00
2018-07-21T13:44:30.959Z,9.27
2018-07-21T13:46:58.620Z,9.80
2018-07-21T13:49:26.960Z,8.63
2018-07-21T13:51:54.733Z,8.87
2018-07-21T13:54:22.317Z,8.80
2018-07-21T13:56:50.036Z,8.70
2018-07-21T13:59:17.776Z,9.13
2018-07-21T14:01:45.433Z,8.60
2018-07-21T14:04:13.107Z,9.27
2018-07-21T14:06:40.704Z,8.87
2018-07-21T14:09:09.990Z,8.80
2018-07-21T14:11:38.165Z,8.37
2018-07-21T14:14:06.485Z,7.43
2018-07-21T14:16:34.479Z,7.97
2018-07-21T14:19:02.326Z,8.47
2018-07-21T14:21:30.134Z,9.53
2018-07-21T14:23:58.859Z,8.07
2018-07-21T14:26:26.891Z,8.43
2018-07-21T14:28:54.920Z,7.57
2018-07-21T14:31:23.341Z,7.50
2018-07-21T14:33:51.321Z,8.13
2018-07-21T14:36:19.321Z,7.30
2018-07-21T14:38:51.376Z,6.90
2018-07-21T14:41:19.161Z,7.37
2018-07-21T14:43:47.021Z,8.27
2018-07-21T14:46:14.956Z,8.73
2018-07-21T14:48:42.863Z,8.40
2018-07-21T14:51:10.560Z,7.00
2018-07-21T14:53:38.122Z,7.63
2018-07-21T14:56:06.006Z,9.50
2018-07-21T14:58:33.808Z,9.63
2018-07-21T15:01:01.785Z,8.90
2018-07-21T15:03:29.704Z,8.13
2018-07-21T15:05:58.008Z,7.60
2018-07-21T15:08:25.766Z,8.53
2018-07-21T15:10:55.295Z,7.10
2018-07-21T15:13:23.105Z,8.20
2018-07-21T15:15:50.936Z,7.50
2018-07-21T15:18:18.915Z,6.83
2018-07-21T15:20:47.005Z,7.47
2018-07-21T15:23:15.083Z,8.00
2018-07-21T15:25:43.097Z,7.30
2018-07-21T15:28:11.169Z,6.70
2018-07-21T15:30:39.119Z,7.10
2018-07-21T15:33:07.201Z,6.50
2018-07-21T15:35:34.907Z,7.43
2018-07-21T15:38:03.049Z,7.43
2018-07-21T15:40:30.971Z,8.17
2018-07-21T15:42:58.726Z,8.60
2018-07-21T15:45:27.259Z,8.50
2018-07-21T15:47:55.556Z,8.83
2018-07-21T15:50:23.211Z,8.30
2018-07-21T15:52:50.821Z,8.40
2018-07-21T15:55:19.127Z,9.47
2018-07-21T15:57:46.773Z,7.17
2018-07-21T16:00:14.396Z,7.17
2018-07-21T16:02:42.125Z,6.37
2018-07-21T16:05:09.992Z,6.97
2018-07-21T16:07:37.834Z,5.40
2018-07-21T16:10:05.891Z,5.70
2018-07-21T16:12:33.533Z,5.17
2018-07-21T16:15:03.873Z,4.20
2018-07-21T16:17:28.946Z,5.10
2018-07-21T16:19:57.149Z,5.73
2018-07-21T16:22:25.134Z,5.33
2018-07-21T16:24:58.932Z,5.60
2018-07-21T16:27:27.716Z,5.37
2018-07-21T16:29:56.555Z,5.27
2018-07-21T16:32:24.296Z,5.03
2018-07-21T16:34:52.098Z,6.10
2018-07-21T16:37:19.925Z,6.03
2018-07-21T16:39:47.765Z,5.07
2018-07-21T16:42:15.732Z,5.53
2018-07-21T16:44:43.693Z,6.33
2018-07-21T16:47:11.504Z,6.00
2018-07-21T16:49:39.373Z,5.57
2018-07-21T16:52:07.314Z,5.57
2018-07-21T16:54:35.538Z,6.60
2018-07-21T16:57:03.702Z,5.30
2018-07-21T16:59:45.114Z,6.20
2018-07-21T17:02:13.429Z,6.30
2018-07-21T17:04:41.868Z,6.27
2018-07-21T17:07:09.752Z,5.90
2018-07-21T17:09:37.799Z,7.67
2018-07-21T17:12:05.611Z,6.70
2018-07-21T17:14:33.429Z,6.40
2018-07-21T17:17:01.183Z,7.73
2018-07-21T17:19:29.639Z,5.60
2018-07-21T17:21:57.546Z,5.73
2018-07-21T17:24:25.227Z,6.10
2018-07-21T17:26:53.612Z,6.50
2018-07-21T17:29:21.423Z,6.90
2018-07-21T17:31:49.217Z,6.10
2018-07-21T17:34:17.422Z,5.93
2018-07-21T17:36:50.200Z,6.43
2018-07-21T17:39:18.316Z,6.67
2018-07-21T17:41:46.347Z,6.43
2018-07-21T17:44:15.289Z,6.73
2018-07-21T17:46:43.227Z,7.77
2018-07-21T17:49:11.179Z,7.10
2018-07-21T17:51:39.000Z,7.23
2018-07-21T17:54:11.684Z,8.87
2018-07-21T17:56:40.116Z,7.37
2018-07-21T17:59:08.664Z,6.90
2018-07-21T18:01:36.744Z,7.83
2018-07-21T18:04:05.276Z,9.13
2018-07-21T18:06:33.808Z,7.63
2018-07-21T18:09:01.893Z,7.93
2018-07-21T18:11:29.716Z,7.37
2018-07-21T18:13:57.393Z,7.23
2018-07-21T18:16:26.038Z,7.73
2018-07-21T18:18:58.880Z,7.20
2018-07-21T18:21:26.514Z,7.23
2018-07-21T18:23:54.213Z,6.90
2018-07-21T18:26:21.695Z,8.00
2018-07-21T18:28:49.421Z,6.97
2018-07-21T18:31:17.632Z,7.23
2018-07-21T18:33:45.265Z,8.00
2018-07-21T18:36:12.937Z,8.07
2018-07-21T18:38:40.532Z,7.67
2018-07-21T18:41:09.391Z,8.03
2018-07-21T18:43:37.684Z,7.27
2018-07-21T18:46:05.847Z,7.40
2018-07-21T18:48:33.712Z,8.10
2018-07-21T18:51:01.500Z,8.47
2018-07-21T18:53:29.286Z,8.80
2018-07-21T18:55:57.024Z,8.80
2018-07-21T18:58:24.766Z,7.80
2018-07-21T19:00:52.491Z,9.30
2018-07-21T19:03:20.943Z,9.07
2018-07-21T19:05:49.618Z,9.10
2018-07-21T19:08:24.355Z,8.67
2018-07-21T19:10:53.750Z,8.47
2018-07-21T19:13:23.509Z,8.40
2018-07-21T19:15:57.288Z,7.93
2018-07-21T19:18:25.100Z,8.30
2018-07-21T19:20:58.601Z,9.10
2018-07-21T19:23:26.475Z,8.83
2018-07-21T19:25:59.957Z,8.37
2018-07-21T19:28:32.580Z,8.03
2018-07-21T19:31:01.945Z,8.10
2018-07-21T19:33:29.966Z,8.80
2018-07-21T19:35:58.187Z,9.00
2018-07-21T19:38:26.468Z,8.67
2018-07-21T19:40:54.221Z,9.17
2018-07-21T19:43:22.579Z,9.63
2018-07-21T19:45:51.694Z,9.10
2018-07-21T19:48:19.476Z,9.17
2018-07-21T19:50:47.195Z,9.10
2018-07-21T19:53:14.948Z,9.30
2018-07-21T19:55:42.835Z,8.33
2018-07-21T19:58:10.720Z,8.30
2018-07-21T20:00:38.719Z,9.03
2018-07-21T20:03:06.630Z,8.10
2018-07-21T20:05:34.444Z,9.40
2018-07-21T20:08:02.620Z,8.07
2018-07-21T20:10:30.580Z,8.20
2018-07-21T20:12:59.865Z,8.37
2018-07-21T20:15:28.058Z,7.70
2018-07-21T20:17:56.815Z,8.63
2018-07-21T20:20:25.124Z,7.70
2018-07-21T20:22:53.080Z,7.20
2018-07-21T20:25:21.430Z,7.30
2018-07-21T20:27:49.310Z,7.70
2018-07-21T20:30:17.466Z,7.23
2018-07-21T20:32:47.112Z,7.17
2018-07-21T20:35:16.379Z,7.47
2018-07-21T20:37:45.373Z,7.73
2018-07-21T20:40:13.947Z,7.00
2018-07-21T20:42:41.833Z,7.30
2018-07-21T20:45:09.713Z,7.47
2018-07-21T20:47:38.038Z,7.20
2018-07-21T20:50:08.100Z,6.53
2018-07-21T20:52:36.264Z,7.50
2018-07-21T20:55:04.248Z,7.60
2018-07-21T20:57:32.303Z,7.83
2018-07-21T21:00:00.295Z,9.00
2018-07-21T21:02:28.137Z,9.00
2018-07-21T21:04:55.982Z,9.30
2018-07-21T21:07:24.023Z,8.03
2018-07-21T21:09:52.134Z,8.27
2018-07-21T21:12:21.276Z,8.10
2018-07-21T21:14:49.665Z,8.77
2018-07-21T21:17:23.522Z,9.03
2018-07-21T21:19:51.689Z,8.70
2018-07-21T21:22:20.203Z,9.60
2018-07-21T21:24:48.367Z,10.33
2018-07-21T21:27:16.383Z,11.10
2018-07-21T21:29:44.474Z,10.77
2018-07-21T21:32:12.787Z,11.80
2018-07-21T21:34:40.700Z,11.47
2018-07-21T21:37:08.484Z,12.27
2018-07-21T21:42:16.664Z,12.13
2018-07-21T21:44:44.816Z,10.80
2018-07-21T21:47:14.469Z,11.63
2018-07-21T21:49:42.541Z,11.47
2018-07-21T21:52:10.704Z,9.97
2018-07-21T21:54:38.914Z,9.77
2018-07-21T21:57:06.999Z,10.10
2018-07-21T21:59:34.747Z,10.00
2018-07-21T22:02:02.560Z,10.70
2018-07-21T22:04:30.431Z,10.00
2018-07-21T22:06:58.940Z,10.20
2018-07-21T22:09:26.927Z,9.30
2018-07-21T22:11:54.897Z,10.67
2018-07-21T22:14:22.759Z,10.70
2018-07-21T22:16:50.565Z,10.07
2018-07-21T22:19:18.338Z,10.80
2018-07-21T22:21:46.025Z,12.40
2018-07-21T22:24:13.709Z,11.80
2018-07-21T22:26:41.495Z,11.53
2018-07-21T22:29:09.560Z,13.33
2018-07-21T22:31:37.293Z,12.67
2018-07-21T22:34:05.225Z,12.50
2018-07-21T22:36:34.628Z,13.90
2018-07-21T22:39:02.532Z,12.50
2018-07-21T22:41:30.286Z,13.07
2018-07-21T22:43:57.899Z,11.93
2018-07-21T22:46:25.615Z,12.77
2018-07-21T22:48:53.291Z,13.40
2018-07-21T22:51:20.934Z,14.67
2018-07-21T22:53:48.579Z,14.90
2018-07-21T22:56:16.170Z,16.40
2018-07-21T22:58:44.006Z,16.03
2018-07-21T23:01:11.635Z,16.77
2018-07-21T23:03:39.162Z,16.30
2018-07-21T23:06:07.027Z,16.20
2018-07-21T23:08:34.873Z,16.97
2018-07-21T23:11:02.456Z,15.80
2018-07-21T23:13:30.080Z,16.87
2018-07-21T23:15:57.665Z,16.60
2018-07-21T23:18:25.193Z,18.20
2018-07-21T23:20:52.917Z,16.20
2018-07-21T23:23:20.425Z,17.50
2018-07-21T23:25:49.497Z,18.37
2018-07-21T23:28:17.032Z,18.10
2018-07-21T23:30:44.569Z,19.37
2018-07-21T23:33:12.111Z,18.00
2018-07-21T23:35:39.745Z,18.27
2018-07-21T23:38:07.322Z,17.80
2018-07-21T23:40:34.927Z,20.03
2018-07-21T23:43:02.468Z,17.67
2018-07-21T23:45:29.963Z,16.60
2018-07-21T23:47:57.475Z,16.53
2018-07-21T23:50:25.048Z,17.77
2018-07-21T23:52:52.628Z,16.30
2018-07-21T23:55:20.174Z,16.97
2018-07-21T23:57:48.409Z,17.67
